Aslo, Minnesota
Current Conditions -  °F | °C
As of 4:33 PM on Sunday 23 Nov 2014 (Local Time) from KMZH Reporting Station
Haze Haze  
Wind Chill: 37°   Ceiling: 9000
Heat Index: 37°   Visibility: 5mi
Dew Point: 34°   Wind: 0mph
Humidity: 87%   Direction: NA
Pressure: 29.35"   Gusts: NA
Location:  46.2004°N, 92.675°W
Report Text: KMZH 232233Z AUTO 00000KT 5SM BR SCT050 BKN090 OVC120 03/01 A2935 RMK AO2
Loading
Personal Weather Stations






























Interactive Weather Map New forecast layout! Learn more

10-Day Weather Forecast

Advertisements
Track Severe Weather on mobile